sensor_id;sensor_type;location;lat;lon;timestamp;temperature;humidity
12370;DHT22;6249;52.128;9.986;2022-12-07T00:00:19;3.80;99.90
12370;DHT22;6249;52.128;9.986;2022-12-07T00:03:41;3.90;99.90
12370;DHT22;6249;52.128;9.986;2022-12-07T00:07:06;4.00;99.90
12370;DHT22;6249;52.128;9.986;2022-12-07T00:10:27;4.10;99.90
12370;DHT22;6249;52.128;9.986;2022-12-07T00:13:52;4.30;99.90
12370;DHT22;6249;52.128;9.986;2022-12-07T00:17:12;4.30;99.90
12370;DHT22;6249;52.128;9.986;2022-12-07T00:20:35;4.20;99.90
12370;DHT22;6249;52.128;9.986;2022-12-07T00:23:57;4.00;99.90
12370;DHT22;6249;52.128;9.986;2022-12-07T00:27:17;3.90;99.90
12370;DHT22;6249;52.128;9.986;2022-12-07T00:30:38;4.00;99.90
12370;DHT22;6249;52.128;9.986;2022-12-07T00:33:59;4.10;99.90
12370;DHT22;6249;52.128;9.986;2022-12-07T00:37:22;4.00;99.90
12370;DHT22;6249;52.128;9.986;2022-12-07T00:40:42;4.00;99.90
12370;DHT22;6249;52.128;9.986;2022-12-07T00:44:03;4.10;99.90
12370;DHT22;6249;52.128;9.986;2022-12-07T00:47:26;4.10;99.90
12370;DHT22;6249;52.128;9.986;2022-12-07T00:50:46;4.00;99.90
12370;DHT22;6249;52.128;9.986;2022-12-07T00:54:07;4.10;99.90
12370;DHT22;6249;52.128;9.986;2022-12-07T00:57:30;4.10;99.90
12370;DHT22;6249;52.128;9.986;2022-12-07T01:00:53;4.20;99.90
12370;DHT22;6249;52.128;9.986;2022-12-07T01:04:14;4.20;99.90
12370;DHT22;6249;52.128;9.986;2022-12-07T01:07:34;4.30;99.90
12370;DHT22;6249;52.128;9.986;2022-12-07T01:14:20;4.10;99.90
12370;DHT22;6249;52.128;9.986;2022-12-07T01:17:43;4.10;99.90
12370;DHT22;6249;52.128;9.986;2022-12-07T01:21:12;4.30;99.90
12370;DHT22;6249;52.128;9.986;2022-12-07T01:24:33;4.20;99.90
12370;DHT22;6249;52.128;9.986;2022-12-07T01:27:56;4.30;99.90
12370;DHT22;6249;52.128;9.986;2022-12-07T01:31:21;4.30;99.90
12370;DHT22;6249;52.128;9.986;2022-12-07T01:34:44;4.30;99.90
12370;DHT22;6249;52.128;9.986;2022-12-07T01:38:04;4.50;99.90
12370;DHT22;6249;52.128;9.986;2022-12-07T01:41:28;4.30;99.90
12370;DHT22;6249;52.128;9.986;2022-12-07T01:48:47;4.20;99.90
12370;DHT22;6249;52.128;9.986;2022-12-07T01:52:38;4.40;99.90
12370;DHT22;6249;52.128;9.986;2022-12-07T01:56:02;4.20;99.90
12370;DHT22;6249;52.128;9.986;2022-12-07T01:59:25;4.20;99.90
12370;DHT22;6249;52.128;9.986;2022-12-07T02:06:19;4.30;99.90
12370;DHT22;6249;52.128;9.986;2022-12-07T02:09:44;4.40;99.90
12370;DHT22;6249;52.128;9.986;2022-12-07T02:13:14;4.40;99.90
12370;DHT22;6249;52.128;9.986;2022-12-07T02:30:42;4.30;99.90
12370;DHT22;6249;52.128;9.986;2022-12-07T02:34:09;4.30;99.90
12370;DHT22;6249;52.128;9.986;2022-12-07T02:41:17;4.40;99.90
12370;DHT22;6249;52.128;9.986;2022-12-07T02:44:40;4.40;99.90
12370;DHT22;6249;52.128;9.986;2022-12-07T02:48:05;4.40;99.90
12370;DHT22;6249;52.128;9.986;2022-12-07T02:51:30;4.50;99.90
12370;DHT22;6249;52.128;9.986;2022-12-07T02:54:51;4.40;99.90
12370;DHT22;6249;52.128;9.986;2022-12-07T02:58:25;4.50;99.90
12370;DHT22;6249;52.128;9.986;2022-12-07T03:06:13;4.30;99.90
12370;DHT22;6249;52.128;9.986;2022-12-07T03:13:50;4.30;99.90
12370;DHT22;6249;52.128;9.986;2022-12-07T03:17:21;4.20;99.90
12370;DHT22;6249;52.128;9.986;2022-12-07T03:20:48;4.00;99.90
12370;DHT22;6249;52.128;9.986;2022-12-07T03:24:15;4.00;99.90
12370;DHT22;6249;52.128;9.986;2022-12-07T03:27:52;4.00;99.90
12370;DHT22;6249;52.128;9.986;2022-12-07T03:31:24;4.10;99.90
12370;DHT22;6249;52.128;9.986;2022-12-07T03:38:23;4.00;99.90
12370;DHT22;6249;52.128;9.986;2022-12-07T03:41:46;3.90;99.90
12370;DHT22;6249;52.128;9.986;2022-12-07T03:45:11;4.00;99.90
12370;DHT22;6249;52.128;9.986;2022-12-07T03:48:40;3.90;99.90
12370;DHT22;6249;52.128;9.986;2022-12-07T03:55:51;3.90;99.90
12370;DHT22;6249;52.128;9.986;2022-12-07T03:59:14;3.90;99.90
12370;DHT22;6249;52.128;9.986;2022-12-07T04:02:36;4.10;99.90
12370;DHT22;6249;52.128;9.986;2022-12-07T04:05:57;4.10;99.90
12370;DHT22;6249;52.128;9.986;2022-12-07T04:09:22;4.10;99.90
12370;DHT22;6249;52.128;9.986;2022-12-07T04:12:43;4.20;99.90
12370;DHT22;6249;52.128;9.986;2022-12-07T04:16:04;4.20;99.90
12370;DHT22;6249;52.128;9.986;2022-12-07T04:19:29;4.20;99.90
12370;DHT22;6249;52.128;9.986;2022-12-07T04:22:50;4.10;99.90
12370;DHT22;6249;52.128;9.986;2022-12-07T04:26:13;4.20;99.90
12370;DHT22;6249;52.128;9.986;2022-12-07T04:29:33;4.30;99.90
12370;DHT22;6249;52.128;9.986;2022-12-07T04:32:54;4.30;99.90
12370;DHT22;6249;52.128;9.986;2022-12-07T04:36:15;4.30;99.90
12370;DHT22;6249;52.128;9.986;2022-12-07T04:39:35;4.30;99.90
12370;DHT22;6249;52.128;9.986;2022-12-07T04:42:56;4.30;99.90
12370;DHT22;6249;52.128;9.986;2022-12-07T04:46:19;4.40;99.90
12370;DHT22;6249;52.128;9.986;2022-12-07T04:49:40;4.50;99.90
12370;DHT22;6249;52.128;9.986;2022-12-07T04:53:00;4.40;99.90
12370;DHT22;6249;52.128;9.986;2022-12-07T04:56:24;4.50;99.90
12370;DHT22;6249;52.128;9.986;2022-12-07T04:59:45;4.60;99.90
12370;DHT22;6249;52.128;9.986;2022-12-07T05:03:05;4.40;99.90
12370;DHT22;6249;52.128;9.986;2022-12-07T05:06:26;4.60;99.90
12370;DHT22;6249;52.128;9.986;2022-12-07T05:09:46;4.50;99.90
12370;DHT22;6249;52.128;9.986;2022-12-07T05:13:07;4.40;99.90
12370;DHT22;6249;52.128;9.986;2022-12-07T05:16:30;4.50;99.90
12370;DHT22;6249;52.128;9.986;2022-12-07T05:19:51;4.50;99.90
12370;DHT22;6249;52.128;9.986;2022-12-07T05:23:12;4.50;99.90
12370;DHT22;6249;52.128;9.986;2022-12-07T05:26:34;4.60;99.90
12370;DHT22;6249;52.128;9.986;2022-12-07T05:29:58;4.40;99.90
12370;DHT22;6249;52.128;9.986;2022-12-07T05:33:18;4.20;99.90
12370;DHT22;6249;52.128;9.986;2022-12-07T05:36:39;4.40;99.90
12370;DHT22;6249;52.128;9.986;2022-12-07T05:40:00;4.30;99.90
12370;DHT22;6249;52.128;9.986;2022-12-07T05:43:23;4.30;99.90
12370;DHT22;6249;52.128;9.986;2022-12-07T05:46:44;4.20;99.90
12370;DHT22;6249;52.128;9.986;2022-12-07T05:50:06;4.30;99.90
12370;DHT22;6249;52.128;9.986;2022-12-07T05:53:29;4.30;99.90
12370;DHT22;6249;52.128;9.986;2022-12-07T05:56:49;4.30;99.90
12370;DHT22;6249;52.128;9.986;2022-12-07T06:00:13;4.20;99.90
12370;DHT22;6249;52.128;9.986;2022-12-07T06:03:34;4.30;99.90
12370;DHT22;6249;52.128;9.986;2022-12-07T06:06:54;4.60;99.90
12370;DHT22;6249;52.128;9.986;2022-12-07T06:10:15;4.50;99.90
12370;DHT22;6249;52.128;9.986;2022-12-07T06:13:41;4.60;99.90
12370;DHT22;6249;52.128;9.986;2022-12-07T06:17:01;4.60;99.90
12370;DHT22;6249;52.128;9.986;2022-12-07T06:20:22;4.50;99.90
12370;DHT22;6249;52.128;9.986;2022-12-07T06:23:45;4.60;99.90
12370;DHT22;6249;52.128;9.986;2022-12-07T06:27:08;4.60;99.90
12370;DHT22;6249;52.128;9.986;2022-12-07T06:30:29;4.50;99.90
12370;DHT22;6249;52.128;9.986;2022-12-07T06:34:00;4.40;99.90
12370;DHT22;6249;52.128;9.986;2022-12-07T06:37:20;4.60;99.90
12370;DHT22;6249;52.128;9.986;2022-12-07T06:40:43;4.60;99.90
12370;DHT22;6249;52.128;9.986;2022-12-07T06:44:09;4.60;99.90
12370;DHT22;6249;52.128;9.986;2022-12-07T06:47:30;4.60;99.90
12370;DHT22;6249;52.128;9.986;2022-12-07T06:50:53;4.70;99.90
12370;DHT22;6249;52.128;9.986;2022-12-07T06:54:17;4.60;99.90
12370;DHT22;6249;52.128;9.986;2022-12-07T06:57:37;4.60;99.90
12370;DHT22;6249;52.128;9.986;2022-12-07T07:00:58;4.60;99.90
12370;DHT22;6249;52.128;9.986;2022-12-07T07:04:19;4.60;99.90
12370;DHT22;6249;52.128;9.986;2022-12-07T07:07:39;4.70;99.90
12370;DHT22;6249;52.128;9.986;2022-12-07T07:11:00;4.60;99.90
12370;DHT22;6249;52.128;9.986;2022-12-07T07:14:25;4.70;99.90
12370;DHT22;6249;52.128;9.986;2022-12-07T07:17:46;4.60;99.90
12370;DHT22;6249;52.128;9.986;2022-12-07T07:21:07;4.70;99.90
12370;DHT22;6249;52.128;9.986;2022-12-07T07:24:30;4.70;99.90
12370;DHT22;6249;52.128;9.986;2022-12-07T07:27:50;4.70;99.90
12370;DHT22;6249;52.128;9.986;2022-12-07T07:31:11;4.70;99.90
12370;DHT22;6249;52.128;9.986;2022-12-07T07:34:34;4.60;99.90
12370;DHT22;6249;52.128;9.986;2022-12-07T07:37:55;4.60;99.90
12370;DHT22;6249;52.128;9.986;2022-12-07T07:41:17;4.60;99.90
12370;DHT22;6249;52.128;9.986;2022-12-07T07:44:38;4.50;99.90
12370;DHT22;6249;52.128;9.986;2022-12-07T07:48:01;4.50;99.90
12370;DHT22;6249;52.128;9.986;2022-12-07T07:51:24;4.50;99.90
12370;DHT22;6249;52.128;9.986;2022-12-07T07:54:45;4.50;99.90
12370;DHT22;6249;52.128;9.986;2022-12-07T07:58:05;4.50;99.90
12370;DHT22;6249;52.128;9.986;2022-12-07T08:01:28;4.40;99.90
12370;DHT22;6249;52.128;9.986;2022-12-07T08:04:49;4.50;99.90
12370;DHT22;6249;52.128;9.986;2022-12-07T08:08:10;4.50;99.90
12370;DHT22;6249;52.128;9.986;2022-12-07T08:11:30;4.70;99.90
12370;DHT22;6249;52.128;9.986;2022-12-07T08:14:51;4.60;99.90
12370;DHT22;6249;52.128;9.986;2022-12-07T08:18:15;4.70;99.90
12370;DHT22;6249;52.128;9.986;2022-12-07T08:21:35;4.80;99.90
12370;DHT22;6249;52.128;9.986;2022-12-07T08:25:00;4.80;99.90
12370;DHT22;6249;52.128;9.986;2022-12-07T08:28:20;4.90;99.90
12370;DHT22;6249;52.128;9.986;2022-12-07T08:31:41;4.80;99.90
12370;DHT22;6249;52.128;9.986;2022-12-07T08:35:04;4.70;99.90
12370;DHT22;6249;52.128;9.986;2022-12-07T08:38:29;4.80;99.90
12370;DHT22;6249;52.128;9.986;2022-12-07T08:41:52;4.80;99.90
12370;DHT22;6249;52.128;9.986;2022-12-07T08:45:16;4.70;99.90
12370;DHT22;6249;52.128;9.986;2022-12-07T08:52:12;5.00;99.90
12370;DHT22;6249;52.128;9.986;2022-12-07T08:55:35;5.00;99.90
12370;DHT22;6249;52.128;9.986;2022-12-07T08:58:57;5.00;99.90
12370;DHT22;6249;52.128;9.986;2022-12-07T09:02:18;5.00;99.90
12370;DHT22;6249;52.128;9.986;2022-12-07T09:05:38;5.10;99.90
12370;DHT22;6249;52.128;9.986;2022-12-07T09:09:01;5.10;99.90
12370;DHT22;6249;52.128;9.986;2022-12-07T09:12:22;5.00;99.90
12370;DHT22;6249;52.128;9.986;2022-12-07T09:15:43;5.10;99.90
12370;DHT22;6249;52.128;9.986;2022-12-07T09:19:04;5.20;99.90
12370;DHT22;6249;52.128;9.986;2022-12-07T09:22:24;5.30;99.90
12370;DHT22;6249;52.128;9.986;2022-12-07T09:25:48;5.40;99.90
12370;DHT22;6249;52.128;9.986;2022-12-07T09:29:09;5.30;99.90
12370;DHT22;6249;52.128;9.986;2022-12-07T09:32:29;5.30;99.90
12370;DHT22;6249;52.128;9.986;2022-12-07T09:35:52;5.30;99.90
12370;DHT22;6249;52.128;9.986;2022-12-07T09:39:15;5.40;99.90
12370;DHT22;6249;52.128;9.986;2022-12-07T09:42:38;5.50;99.90
12370;DHT22;6249;52.128;9.986;2022-12-07T09:46:01;5.50;99.90
12370;DHT22;6249;52.128;9.986;2022-12-07T09:49:24;5.50;99.90
12370;DHT22;6249;52.128;9.986;2022-12-07T09:52:47;5.30;99.90
12370;DHT22;6249;52.128;9.986;2022-12-07T09:56:13;5.30;99.90
12370;DHT22;6249;52.128;9.986;2022-12-07T09:59:34;5.30;99.90
12370;DHT22;6249;52.128;9.986;2022-12-07T10:03:01;5.30;99.90
12370;DHT22;6249;52.128;9.986;2022-12-07T10:06:22;5.30;99.90
12370;DHT22;6249;52.128;9.986;2022-12-07T10:09:45;5.40;99.90
12370;DHT22;6249;52.128;9.986;2022-12-07T10:13:08;5.40;99.90
12370;DHT22;6249;52.128;9.986;2022-12-07T10:16:40;5.50;99.90
12370;DHT22;6249;52.128;9.986;2022-12-07T10:20:18;5.50;99.90
12370;DHT22;6249;52.128;9.986;2022-12-07T10:27:32;6.00;99.90
12370;DHT22;6249;52.128;9.986;2022-12-07T10:31:02;6.10;99.90
12370;DHT22;6249;52.128;9.986;2022-12-07T10:34:35;6.00;99.90
12370;DHT22;6249;52.128;9.986;2022-12-07T10:37:58;6.00;99.90
12370;DHT22;6249;52.128;9.986;2022-12-07T10:41:19;6.10;99.90
12370;DHT22;6249;52.128;9.986;2022-12-07T10:44:40;6.40;99.90
12370;DHT22;6249;52.128;9.986;2022-12-07T10:48:11;6.90;99.90
12370;DHT22;6249;52.128;9.986;2022-12-07T11:03:18;6.40;99.90
12370;DHT22;6249;52.128;9.986;2022-12-07T11:07:04;6.50;99.90
12370;DHT22;6249;52.128;9.986;2022-12-07T11:36:33;6.60;99.90
12370;DHT22;6249;52.128;9.986;2022-12-07T11:40:01;7.00;99.90
12370;DHT22;6249;52.128;9.986;2022-12-07T11:43:34;7.00;99.90
12370;DHT22;6249;52.128;9.986;2022-12-07T11:51:14;7.00;99.90
12370;DHT22;6249;52.128;9.986;2022-12-07T11:54:41;6.70;99.90
12370;DHT22;6249;52.128;9.986;2022-12-07T12:02:14;6.10;99.90
12370;DHT22;6249;52.128;9.986;2022-12-07T12:05:36;6.50;99.90
12370;DHT22;6249;52.128;9.986;2022-12-07T12:09:14;6.80;99.90
12370;DHT22;6249;52.128;9.986;2022-12-07T12:23:54;6.60;99.90
12370;DHT22;6249;52.128;9.986;2022-12-07T12:27:32;7.60;99.90
12370;DHT22;6249;52.128;9.986;2022-12-07T12:38:29;7.40;99.90
12370;DHT22;6249;52.128;9.986;2022-12-07T12:41:53;7.10;99.90
12370;DHT22;6249;52.128;9.986;2022-12-07T12:45:32;6.80;99.90
12370;DHT22;6249;52.128;9.986;2022-12-07T13:00:22;6.50;99.90
12370;DHT22;6249;52.128;9.986;2022-12-07T13:03:53;6.60;99.90
12370;DHT22;6249;52.128;9.986;2022-12-07T13:11:25;6.70;99.90
12370;DHT22;6249;52.128;9.986;2022-12-07T13:14:56;7.00;99.90
12370;DHT22;6249;52.128;9.986;2022-12-07T13:21:53;7.00;99.90
12370;DHT22;6249;52.128;9.986;2022-12-07T13:29:12;6.80;99.90
12370;DHT22;6249;52.128;9.986;2022-12-07T13:32:34;6.60;99.90
12370;DHT22;6249;52.128;9.986;2022-12-07T13:35:57;6.50;99.90
12370;DHT22;6249;52.128;9.986;2022-12-07T13:39:24;6.50;99.90
12370;DHT22;6249;52.128;9.986;2022-12-07T13:42:48;6.40;99.90
12370;DHT22;6249;52.128;9.986;2022-12-07T13:46:20;6.40;99.90
12370;DHT22;6249;52.128;9.986;2022-12-07T13:49:54;6.40;99.90
12370;DHT22;6249;52.128;9.986;2022-12-07T13:53:14;6.40;99.90
12370;DHT22;6249;52.128;9.986;2022-12-07T13:56:38;6.30;99.90
12370;DHT22;6249;52.128;9.986;2022-12-07T14:00:04;6.30;99.90
12370;DHT22;6249;52.128;9.986;2022-12-07T14:03:36;6.20;99.90
12370;DHT22;6249;52.128;9.986;2022-12-07T14:06:57;6.10;99.90
12370;DHT22;6249;52.128;9.986;2022-12-07T14:10:31;6.10;99.90
12370;DHT22;6249;52.128;9.986;2022-12-07T14:13:58;6.20;99.90
12370;DHT22;6249;52.128;9.986;2022-12-07T14:17:23;6.20;99.90
12370;DHT22;6249;52.128;9.986;2022-12-07T14:20:44;6.10;99.90
12370;DHT22;6249;52.128;9.986;2022-12-07T14:27:33;5.90;99.90
12370;DHT22;6249;52.128;9.986;2022-12-07T14:30:56;5.90;99.90
12370;DHT22;6249;52.128;9.986;2022-12-07T14:34:20;5.90;99.90
12370;DHT22;6249;52.128;9.986;2022-12-07T14:37:43;5.70;99.90
12370;DHT22;6249;52.128;9.986;2022-12-07T14:41:14;5.50;99.90
12370;DHT22;6249;52.128;9.986;2022-12-07T14:44:56;5.50;99.90
12370;DHT22;6249;52.128;9.986;2022-12-07T14:48:17;5.60;99.90
12370;DHT22;6249;52.128;9.986;2022-12-07T14:51:39;5.50;99.90
12370;DHT22;6249;52.128;9.986;2022-12-07T14:55:00;5.50;99.90
12370;DHT22;6249;52.128;9.986;2022-12-07T14:58:23;5.60;99.90
12370;DHT22;6249;52.128;9.986;2022-12-07T15:01:47;5.50;99.90
12370;DHT22;6249;52.128;9.986;2022-12-07T15:05:07;5.50;99.90
12370;DHT22;6249;52.128;9.986;2022-12-07T15:08:28;5.40;99.90
12370;DHT22;6249;52.128;9.986;2022-12-07T15:11:51;5.50;99.90
12370;DHT22;6249;52.128;9.986;2022-12-07T15:15:14;5.30;99.90
12370;DHT22;6249;52.128;9.986;2022-12-07T15:18:37;5.40;99.90
12370;DHT22;6249;52.128;9.986;2022-12-07T15:21:58;5.40;99.90
12370;DHT22;6249;52.128;9.986;2022-12-07T15:25:20;5.30;99.90
12370;DHT22;6249;52.128;9.986;2022-12-07T15:28:41;5.40;99.90
12370;DHT22;6249;52.128;9.986;2022-12-07T15:32:06;5.40;99.90
12370;DHT22;6249;52.128;9.986;2022-12-07T15:35:26;5.40;99.90
12370;DHT22;6249;52.128;9.986;2022-12-07T15:38:47;5.30;99.90
12370;DHT22;6249;52.128;9.986;2022-12-07T15:42:08;5.40;99.90
12370;DHT22;6249;52.128;9.986;2022-12-07T15:45:31;5.40;99.90
12370;DHT22;6249;52.128;9.986;2022-12-07T15:48:51;5.30;99.90
12370;DHT22;6249;52.128;9.986;2022-12-07T15:52:12;5.20;99.90
12370;DHT22;6249;52.128;9.986;2022-12-07T15:55:33;5.20;99.90
12370;DHT22;6249;52.128;9.986;2022-12-07T15:58:53;5.30;99.90
12370;DHT22;6249;52.128;9.986;2022-12-07T16:02:16;5.20;99.90
12370;DHT22;6249;52.128;9.986;2022-12-07T16:05:36;5.20;99.90
12370;DHT22;6249;52.128;9.986;2022-12-07T16:08:57;5.10;99.90
12370;DHT22;6249;52.128;9.986;2022-12-07T16:12:22;5.00;99.90
12370;DHT22;6249;52.128;9.986;2022-12-07T16:15:43;4.90;99.90
12370;DHT22;6249;52.128;9.986;2022-12-07T16:19:03;5.00;99.90
12370;DHT22;6249;52.128;9.986;2022-12-07T16:22:24;4.90;99.90
12370;DHT22;6249;52.128;9.986;2022-12-07T16:25:49;4.80;99.90
12370;DHT22;6249;52.128;9.986;2022-12-07T16:29:13;4.70;99.90
12370;DHT22;6249;52.128;9.986;2022-12-07T16:32:34;4.80;99.90
12370;DHT22;6249;52.128;9.986;2022-12-07T16:35:57;4.70;99.90
12370;DHT22;6249;52.128;9.986;2022-12-07T16:39:21;4.60;99.90
12370;DHT22;6249;52.128;9.986;2022-12-07T16:42:41;4.60;99.90
12370;DHT22;6249;52.128;9.986;2022-12-07T16:46:02;4.90;99.90
12370;DHT22;6249;52.128;9.986;2022-12-07T16:49:23;4.70;99.90
12370;DHT22;6249;52.128;9.986;2022-12-07T16:52:46;4.70;99.90
12370;DHT22;6249;52.128;9.986;2022-12-07T16:56:12;4.50;99.90
12370;DHT22;6249;52.128;9.986;2022-12-07T16:59:33;4.40;99.90
12370;DHT22;6249;52.128;9.986;2022-12-07T17:02:53;4.30;99.90
12370;DHT22;6249;52.128;9.986;2022-12-07T17:06:18;4.20;99.90
12370;DHT22;6249;52.128;9.986;2022-12-07T17:09:39;4.30;99.90
12370;DHT22;6249;52.128;9.986;2022-12-07T17:13:00;4.20;99.90
12370;DHT22;6249;52.128;9.986;2022-12-07T17:16:20;4.10;99.90
12370;DHT22;6249;52.128;9.986;2022-12-07T17:19:41;4.00;99.90
12370;DHT22;6249;52.128;9.986;2022-12-07T17:23:02;5.00;99.90
12370;DHT22;6249;52.128;9.986;2022-12-07T17:26:24;4.10;99.90
12370;DHT22;6249;52.128;9.986;2022-12-07T17:29:45;4.00;99.90
12370;DHT22;6249;52.128;9.986;2022-12-07T17:33:05;4.10;99.90
12370;DHT22;6249;52.128;9.986;2022-12-07T17:36:30;4.30;99.90
12370;DHT22;6249;52.128;9.986;2022-12-07T17:39:52;4.30;99.90
12370;DHT22;6249;52.128;9.986;2022-12-07T17:43:17;4.30;99.90
12370;DHT22;6249;52.128;9.986;2022-12-07T17:46:40;4.30;99.90
12370;DHT22;6249;52.128;9.986;2022-12-07T17:50:05;4.30;99.90
12370;DHT22;6249;52.128;9.986;2022-12-07T17:53:26;4.20;99.90
12370;DHT22;6249;52.128;9.986;2022-12-07T17:56:47;4.30;99.90
12370;DHT22;6249;52.128;9.986;2022-12-07T18:00:08;4.40;99.90
12370;DHT22;6249;52.128;9.986;2022-12-07T18:03:30;4.40;99.90
12370;DHT22;6249;52.128;9.986;2022-12-07T18:06:53;4.40;99.90
12370;DHT22;6249;52.128;9.986;2022-12-07T18:10:14;4.30;99.90
12370;DHT22;6249;52.128;9.986;2022-12-07T18:13:35;4.30;99.90
12370;DHT22;6249;52.128;9.986;2022-12-07T18:16:58;4.40;99.90
12370;DHT22;6249;52.128;9.986;2022-12-07T18:20:18;4.40;99.90
12370;DHT22;6249;52.128;9.986;2022-12-07T18:23:40;4.50;99.90
12370;DHT22;6249;52.128;9.986;2022-12-07T18:27:04;4.40;99.90
12370;DHT22;6249;52.128;9.986;2022-12-07T18:30:24;4.50;99.90
12370;DHT22;6249;52.128;9.986;2022-12-07T18:33:50;4.50;99.90
12370;DHT22;6249;52.128;9.986;2022-12-07T18:37:14;4.50;99.90
12370;DHT22;6249;52.128;9.986;2022-12-07T18:40:37;4.50;99.90
12370;DHT22;6249;52.128;9.986;2022-12-07T18:43:58;4.40;99.90
12370;DHT22;6249;52.128;9.986;2022-12-07T18:47:18;4.40;99.90
12370;DHT22;6249;52.128;9.986;2022-12-07T18:50:39;4.50;99.90
12370;DHT22;6249;52.128;9.986;2022-12-07T18:54:02;4.40;99.90
12370;DHT22;6249;52.128;9.986;2022-12-07T18:57:24;4.30;99.90
12370;DHT22;6249;52.128;9.986;2022-12-07T19:00:44;4.20;99.90
12370;DHT22;6249;52.128;9.986;2022-12-07T19:04:07;4.20;99.90
12370;DHT22;6249;52.128;9.986;2022-12-07T19:07:28;4.20;99.90
12370;DHT22;6249;52.128;9.986;2022-12-07T19:10:49;4.20;99.90
12370;DHT22;6249;52.128;9.986;2022-12-07T19:14:10;4.10;99.90
12370;DHT22;6249;52.128;9.986;2022-12-07T19:17:34;4.20;99.90
12370;DHT22;6249;52.128;9.986;2022-12-07T19:20:55;4.20;99.90
12370;DHT22;6249;52.128;9.986;2022-12-07T19:24:17;4.30;99.90
12370;DHT22;6249;52.128;9.986;2022-12-07T19:27:42;4.10;99.90
12370;DHT22;6249;52.128;9.986;2022-12-07T19:31:07;4.10;99.90
12370;DHT22;6249;52.128;9.986;2022-12-07T19:34:31;4.00;99.90
12370;DHT22;6249;52.128;9.986;2022-12-07T19:37:53;4.10;99.90
12370;DHT22;6249;52.128;9.986;2022-12-07T19:41:14;4.10;99.90
12370;DHT22;6249;52.128;9.986;2022-12-07T19:44:53;4.00;99.90
12370;DHT22;6249;52.128;9.986;2022-12-07T19:48:13;4.00;99.90
12370;DHT22;6249;52.128;9.986;2022-12-07T19:51:34;4.10;99.90
12370;DHT22;6249;52.128;9.986;2022-12-07T19:54:57;4.10;99.90
12370;DHT22;6249;52.128;9.986;2022-12-07T19:58:18;4.10;99.90
12370;DHT22;6249;52.128;9.986;2022-12-07T20:01:39;4.10;99.90
12370;DHT22;6249;52.128;9.986;2022-12-07T20:05:02;4.20;99.90
12370;DHT22;6249;52.128;9.986;2022-12-07T20:08:25;4.10;99.90
12370;DHT22;6249;52.128;9.986;2022-12-07T20:11:49;4.10;99.90
12370;DHT22;6249;52.128;9.986;2022-12-07T20:15:28;4.20;99.90
12370;DHT22;6249;52.128;9.986;2022-12-07T20:18:49;4.10;99.90
12370;DHT22;6249;52.128;9.986;2022-12-07T20:22:10;4.10;99.90
12370;DHT22;6249;52.128;9.986;2022-12-07T20:25:35;4.20;99.90
12370;DHT22;6249;52.128;9.986;2022-12-07T20:28:55;4.00;99.90
12370;DHT22;6249;52.128;9.986;2022-12-07T20:32:21;4.00;99.90
12370;DHT22;6249;52.128;9.986;2022-12-07T20:35:41;4.10;99.90
12370;DHT22;6249;52.128;9.986;2022-12-07T20:39:05;4.00;99.90
12370;DHT22;6249;52.128;9.986;2022-12-07T20:42:28;4.00;99.90
12370;DHT22;6249;52.128;9.986;2022-12-07T20:45:58;3.90;99.90
12370;DHT22;6249;52.128;9.986;2022-12-07T20:49:21;4.00;99.90
12370;DHT22;6249;52.128;9.986;2022-12-07T20:52:44;4.00;99.90
12370;DHT22;6249;52.128;9.986;2022-12-07T20:56:05;4.00;99.90
12370;DHT22;6249;52.128;9.986;2022-12-07T20:59:26;3.80;99.90
12370;DHT22;6249;52.128;9.986;2022-12-07T21:02:48;3.80;99.90
12370;DHT22;6249;52.128;9.986;2022-12-07T21:06:14;4.00;99.90
12370;DHT22;6249;52.128;9.986;2022-12-07T21:09:35;3.70;99.90
12370;DHT22;6249;52.128;9.986;2022-12-07T21:12:58;3.80;99.90
12370;DHT22;6249;52.128;9.986;2022-12-07T21:16:26;3.70;99.90
12370;DHT22;6249;52.128;9.986;2022-12-07T21:19:47;3.80;99.90
12370;DHT22;6249;52.128;9.986;2022-12-07T21:23:10;3.80;99.90
12370;DHT22;6249;52.128;9.986;2022-12-07T21:26:34;3.80;99.90
12370;DHT22;6249;52.128;9.986;2022-12-07T21:29:55;3.70;99.90
12370;DHT22;6249;52.128;9.986;2022-12-07T21:33:15;3.70;99.90
12370;DHT22;6249;52.128;9.986;2022-12-07T21:36:36;3.60;99.90
12370;DHT22;6249;52.128;9.986;2022-12-07T21:39:59;3.60;99.90
12370;DHT22;6249;52.128;9.986;2022-12-07T21:43:20;3.80;99.90
12370;DHT22;6249;52.128;9.986;2022-12-07T21:46:41;3.80;99.90
12370;DHT22;6249;52.128;9.986;2022-12-07T21:50:01;3.80;99.90
12370;DHT22;6249;52.128;9.986;2022-12-07T21:53:22;3.70;99.90
12370;DHT22;6249;52.128;9.986;2022-12-07T21:56:42;3.70;99.90
12370;DHT22;6249;52.128;9.986;2022-12-07T22:00:05;3.70;99.90
12370;DHT22;6249;52.128;9.986;2022-12-07T22:03:26;3.80;99.90
12370;DHT22;6249;52.128;9.986;2022-12-07T22:06:47;3.80;99.90
12370;DHT22;6249;52.128;9.986;2022-12-07T22:10:08;3.80;99.90
12370;DHT22;6249;52.128;9.986;2022-12-07T22:13:31;3.90;99.90
12370;DHT22;6249;52.128;9.986;2022-12-07T22:17:11;4.00;99.90
12370;DHT22;6249;52.128;9.986;2022-12-07T22:20:31;3.90;99.90
12370;DHT22;6249;52.128;9.986;2022-12-07T22:23:54;3.90;99.90
12370;DHT22;6249;52.128;9.986;2022-12-07T22:27:20;4.10;99.90
12370;DHT22;6249;52.128;9.986;2022-12-07T22:30:43;4.10;99.90
12370;DHT22;6249;52.128;9.986;2022-12-07T22:34:03;3.90;99.90
12370;DHT22;6249;52.128;9.986;2022-12-07T22:37:30;4.00;99.90
12370;DHT22;6249;52.128;9.986;2022-12-07T22:40:51;4.00;99.90
12370;DHT22;6249;52.128;9.986;2022-12-07T22:44:11;4.10;99.90
12370;DHT22;6249;52.128;9.986;2022-12-07T22:47:32;4.00;99.90
12370;DHT22;6249;52.128;9.986;2022-12-07T22:50:55;4.00;99.90
12370;DHT22;6249;52.128;9.986;2022-12-07T22:54:16;4.10;99.90
12370;DHT22;6249;52.128;9.986;2022-12-07T22:57:37;4.00;99.90
12370;DHT22;6249;52.128;9.986;2022-12-07T23:00:57;3.90;99.90
12370;DHT22;6249;52.128;9.986;2022-12-07T23:04:18;3.90;99.90
12370;DHT22;6249;52.128;9.986;2022-12-07T23:07:38;4.00;99.90
12370;DHT22;6249;52.128;9.986;2022-12-07T23:11:01;3.90;99.90
12370;DHT22;6249;52.128;9.986;2022-12-07T23:14:29;3.90;99.90
12370;DHT22;6249;52.128;9.986;2022-12-07T23:17:50;3.90;99.90
12370;DHT22;6249;52.128;9.986;2022-12-07T23:21:13;3.90;99.90
12370;DHT22;6249;52.128;9.986;2022-12-07T23:24:36;3.80;99.90
12370;DHT22;6249;52.128;9.986;2022-12-07T23:27:57;3.90;99.90
12370;DHT22;6249;52.128;9.986;2022-12-07T23:31:18;4.00;99.90
12370;DHT22;6249;52.128;9.986;2022-12-07T23:34:39;3.90;99.90
12370;DHT22;6249;52.128;9.986;2022-12-07T23:37:59;3.70;99.90
12370;DHT22;6249;52.128;9.986;2022-12-07T23:41:23;3.70;99.90
12370;DHT22;6249;52.128;9.986;2022-12-07T23:44:46;3.90;99.90
12370;DHT22;6249;52.128;9.986;2022-12-07T23:48:07;3.60;99.90
12370;DHT22;6249;52.128;9.986;2022-12-07T23:51:30;3.70;99.90
12370;DHT22;6249;52.128;9.986;2022-12-07T23:54:51;3.70;99.90
12370;DHT22;6249;52.128;9.986;2022-12-07T23:58:11;3.70;99.90
